Time;durP1;ratioP1;P1;durP2;ratioP2;P2;SDS_P1;SDS_P2;PMS_P1;PMS_P2;Temp;Humidity;BMP_temperature;BMP_pressure;BME280_temperature;BME280_humidity;BME280_pressure;Samples;Min_cycle;Max_cycle;Signal;HPM_P1;HPM_P2
2022/07/28 00:00:57;;;;;;;21.50;17.32;;;28.90;99.90;;;;;;1891999;74;21221;-79
2022/07/28 00:03:27;;;;;;;18.95;16.65;;;28.90;99.90;;;;;;1884468;75;21108;-79
2022/07/28 00:05:59;;;;;;;17.57;15.65;;;28.90;99.90;;;;;;1873563;75;21131;-81
2022/07/28 00:08:29;;;;;;;20.88;16.17;;;28.90;99.90;;;;;;1884616;75;21093;-80
2022/07/28 00:11:00;;;;;;;21.82;17.32;;;28.90;99.90;;;;;;1898796;75;21132;-79
2022/07/28 00:13:32;;;;;;;20.62;17.15;;;28.90;99.90;;;;;;1905682;74;21237;-80
2022/07/28 00:16:03;;;;;;;20.08;16.05;;;28.90;99.90;;;;;;1915843;74;21194;-79
2022/07/28 00:18:34;;;;;;;19.62;17.10;;;28.90;99.90;;;;;;1916686;74;21152;-78
2022/07/28 00:21:05;;;;;;;21.17;17.25;;;28.90;99.90;;;;;;1890137;74;22343;-80
2022/07/28 00:23:41;;;;;;;18.12;16.23;;;28.90;99.90;;;;;;1906223;74;21143;-79
2022/07/28 00:26:11;;;;;;;17.73;15.85;;;29.00;99.90;;;;;;1915759;74;21128;-80
2022/07/28 00:28:42;;;;;;;19.12;16.20;;;29.00;99.90;;;;;;1918802;74;21140;-79
2022/07/28 00:31:16;;;;;;;18.23;15.63;;;28.90;99.90;;;;;;1918670;74;21089;-82
2022/07/28 00:33:47;;;;;;;19.42;16.27;;;29.00;99.90;;;;;;1908785;74;21637;-80
2022/07/28 00:36:19;;;;;;;19.40;15.00;;;29.00;99.90;;;;;;1910766;74;21689;-80
2022/07/28 00:38:52;;;;;;;18.07;15.95;;;29.00;99.90;;;;;;1904337;75;21179;-80
2022/07/28 00:41:24;;;;;;;19.32;16.37;;;29.00;99.90;;;;;;1905706;74;21078;-79
2022/07/28 00:43:56;;;;;;;24.90;15.68;;;29.00;99.90;;;;;;1907836;74;21128;-81
2022/07/28 00:46:28;;;;;;;19.30;16.97;;;29.00;99.90;;;;;;1917896;74;21080;-80
2022/07/28 00:48:59;;;;;;;18.82;16.67;;;29.00;99.90;;;;;;1913425;74;21148;-80
2022/07/28 00:51:30;;;;;;;20.92;16.50;;;29.10;99.90;;;;;;1915772;74;21124;-79
2022/07/28 00:54:05;;;;;;;18.80;16.80;;;29.10;99.90;;;;;;1909190;73;21217;-79
2022/07/28 00:56:40;;;;;;;22.87;16.48;;;29.10;99.90;;;;;;1914695;74;21198;-82
2022/07/28 00:59:12;;;;;;;21.42;17.27;;;29.10;99.90;;;;;;1919987;73;21550;-81
2022/07/28 01:01:43;;;;;;;21.52;18.37;;;29.20;99.90;;;;;;1907404;74;21596;-80
2022/07/28 01:04:15;;;;;;;27.60;22.00;;;29.20;99.90;;;;;;1905542;74;21683;-81
2022/07/28 01:06:48;;;;;;;28.57;22.82;;;29.30;99.90;;;;;;1906854;74;21103;-80
2022/07/28 01:09:23;;;;;;;26.75;23.55;;;29.30;99.90;;;;;;1905148;74;21140;-80
2022/07/28 01:12:01;;;;;;;26.10;22.25;;;29.30;99.90;;;;;;1912314;74;21195;-79
2022/07/28 01:14:35;;;;;;;21.37;19.17;;;29.30;99.90;;;;;;1900227;74;21193;-79
2022/07/28 01:17:09;;;;;;;20.45;17.77;;;29.40;99.90;;;;;;1857769;75;21151;-79
2022/07/28 01:19:41;;;;;;;21.57;18.20;;;29.50;99.90;;;;;;1908917;74;21116;-80
2022/07/28 01:22:17;;;;;;;17.35;14.63;;;29.50;99.90;;;;;;1913207;73;21124;-80
2022/07/28 01:24:50;;;;;;;15.58;13.78;;;29.50;99.90;;;;;;1936797;74;21160;-79
2022/07/28 01:27:26;;;;;;;20.40;15.40;;;29.60;99.90;;;;;;1910677;74;21221;-80
2022/07/28 01:30:00;;;;;;;21.52;16.90;;;29.60;99.90;;;;;;1908315;74;21148;-78
2022/07/28 01:32:36;;;;;;;19.48;16.77;;;29.70;99.90;;;;;;1917478;74;21214;-81
2022/07/28 01:35:13;;;;;;;16.17;14.03;;;29.80;99.90;;;;;;1906335;74;21156;-79
2022/07/28 01:37:47;;;;;;;17.70;13.05;;;29.90;99.90;;;;;;1904917;74;21532;-80
2022/07/28 01:40:20;;;;;;;16.80;14.65;;;29.90;99.90;;;;;;1906909;74;21100;-81
2022/07/28 01:42:54;;;;;;;17.20;14.65;;;30.00;99.90;;;;;;1914137;74;21084;-80
2022/07/28 01:45:28;;;;;;;17.23;14.60;;;30.10;99.90;;;;;;1900027;74;21080;-81
2022/07/28 01:48:00;;;;;;;14.85;13.25;;;30.20;99.90;;;;;;1902057;74;21112;-80
2022/07/28 01:50:32;;;;;;;12.70;10.00;;;30.30;99.90;;;;;;1902619;74;21108;-80
2022/07/28 01:53:16;;;;;;;12.98;10.65;;;30.40;99.90;;;;;;1905503;74;21296;-80
2022/07/28 01:55:50;;;;;;;12.95;10.95;;;30.50;99.80;;;;;;1904357;74;21552;-80
2022/07/28 01:58:29;;;;;;;15.40;12.40;;;30.60;99.60;;;;;;1901031;74;21147;-80
2022/07/28 02:01:02;;;;;;;22.20;11.60;;;30.70;99.60;;;;;;1878475;75;21698;-80
2022/07/28 02:03:36;;;;;;;13.03;11.60;;;30.80;99.20;;;;;;1872257;75;21081;-80
2022/07/28 02:06:08;;;;;;;12.80;11.40;;;30.90;99.30;;;;;;1909792;74;21623;-80
2022/07/28 02:08:42;;;;;;;12.75;11.35;;;31.00;98.90;;;;;;1900964;75;21120;-80
2022/07/28 02:13:51;;;;;;;13.70;10.43;;;31.20;98.50;;;;;;1903034;74;21164;-80
2022/07/28 02:16:27;;;;;;;13.90;10.55;;;31.30;98.10;;;;;;1907679;74;21491;-81
2022/07/28 02:19:02;;;;;;;11.88;10.28;;;31.40;97.20;;;;;;1908222;74;21450;-81
2022/07/28 02:21:38;;;;;;;11.43;10.30;;;31.40;97.50;;;;;;1907699;74;21655;-80
2022/07/28 02:24:11;;;;;;;11.90;10.70;;;31.40;97.20;;;;;;1906668;74;21136;-80
2022/07/28 02:26:45;;;;;;;10.53;9.43;;;31.40;97.50;;;;;;1904658;74;21071;-81
2022/07/28 02:29:21;;;;;;;13.78;9.83;;;31.30;97.20;;;;;;1911094;74;21120;-81
2022/07/28 02:31:55;;;;;;;11.45;8.38;;;31.30;97.00;;;;;;1912142;74;21108;-81
2022/07/28 02:34:30;;;;;;;9.58;8.58;;;31.20;96.70;;;;;;1902241;74;21229;-81
2022/07/28 02:37:03;;;;;;;9.95;8.90;;;31.20;96.60;;;;;;1854759;76;21164;-81
2022/07/28 02:39:36;;;;;;;11.20;8.48;;;31.10;96.80;;;;;;1914642;74;21090;-81
2022/07/28 02:42:10;;;;;;;13.43;8.65;;;31.10;96.50;;;;;;1909712;74;21199;-80
2022/07/28 02:44:43;;;;;;;10.55;8.80;;;31.10;96.40;;;;;;1914853;74;21190;-79
2022/07/28 02:47:17;;;;;;;11.90;8.48;;;31.10;96.80;;;;;;1909041;74;21164;-81
2022/07/28 02:49:49;;;;;;;10.85;8.50;;;31.10;96.80;;;;;;1911607;74;21224;-81
2022/07/28 02:52:25;;;;;;;15.08;8.20;;;31.10;96.50;;;;;;1901937;74;21132;-83
2022/07/28 02:54:58;;;;;;;14.03;8.53;;;31.10;96.30;;;;;;1903106;74;21150;-82
2022/07/28 02:57:31;;;;;;;10.93;8.55;;;31.10;96.50;;;;;;1913112;74;21179;-80
2022/07/28 03:00:03;;;;;;;11.78;8.65;;;31.20;96.60;;;;;;1910606;74;21159;-80
2022/07/28 03:02:35;;;;;;;8.85;7.95;;;31.20;96.30;;;;;;1903063;74;21077;-80
2022/07/28 03:05:07;;;;;;;9.23;8.13;;;31.20;96.30;;;;;;1900447;74;21242;-80
2022/07/28 03:07:42;;;;;;;10.75;9.15;;;31.20;96.00;;;;;;1907492;74;21205;-80
2022/07/28 03:10:17;;;;;;;9.43;7.80;;;31.20;95.70;;;;;;1900906;74;21120;-81
2022/07/28 03:12:49;;;;;;;11.10;7.97;;;31.20;95.60;;;;;;1903670;74;21493;-82
2022/07/28 03:15:20;;;;;;;8.83;8.03;;;31.40;95.70;;;;;;1909775;74;21221;-80
2022/07/28 03:17:52;;;;;;;9.18;7.87;;;31.50;95.40;;;;;;1903385;74;21619;-82
2022/07/28 03:20:23;;;;;;;8.23;7.03;;;31.70;95.30;;;;;;1914291;74;21136;-80
2022/07/28 03:22:54;;;;;;;7.97;6.80;;;31.80;94.60;;;;;;1855538;77;21132;-81
2022/07/28 03:28:20;;;;;;;8.15;7.35;;;32.00;93.80;;;;;;1836891;77;21396;-80
2022/07/28 03:30:53;;;;;;;8.93;8.03;;;32.10;94.40;;;;;;1777598;79;21217;-80
2022/07/28 03:33:24;;;;;;;7.78;6.97;;;32.20;93.50;;;;;;1787389;79;21194;-81
2022/07/28 03:35:57;;;;;;;7.80;6.53;;;32.20;93.90;;;;;;1838552;77;21256;-79
2022/07/28 03:38:31;;;;;;;12.15;7.37;;;32.20;93.30;;;;;;1809144;78;21170;-79
2022/07/28 03:41:09;;;;;;;9.20;8.20;;;32.20;93.40;;;;;;1828395;77;21228;-81
2022/07/28 03:43:44;;;;;;;9.40;6.73;;;32.20;93.50;;;;;;1809767;77;21308;-80
2022/07/28 03:46:15;;;;;;;8.50;6.83;;;32.20;93.30;;;;;;1782914;79;21311;-80
2022/07/28 03:48:46;;;;;;;12.75;7.78;;;32.20;93.70;;;;;;1819471;77;21162;-80
2022/07/28 03:51:24;;;;;;;8.75;7.15;;;32.20;93.40;;;;;;1806956;78;21248;-80
2022/07/28 03:53:56;;;;;;;10.13;7.30;;;32.30;93.40;;;;;;1793382;78;21089;-79
2022/07/28 03:56:28;;;;;;;9.00;7.20;;;32.30;93.80;;;;;;1801651;78;21696;-80
2022/07/28 03:59:00;;;;;;;7.60;6.80;;;32.30;93.40;;;;;;1831300;76;21905;-81
2022/07/28 04:01:35;;;;;;;10.30;7.15;;;32.30;93.30;;;;;;1840274;76;21078;-81
2022/07/28 04:04:06;;;;;;;7.80;7.00;;;32.30;93.50;;;;;;1837315;76;21171;-80
2022/07/28 04:06:40;;;;;;;8.13;7.33;;;32.30;93.20;;;;;;1833729;76;21120;-80
2022/07/28 04:09:11;;;;;;;8.28;6.70;;;32.30;93.50;;;;;;1855360;76;21181;-80
2022/07/28 04:11:44;;;;;;;8.03;6.70;;;32.20;93.40;;;;;;1812485;77;21635;-81
2022/07/28 04:14:16;;;;;;;8.80;7.00;;;32.30;93.20;;;;;;1811110;78;21607;-80
2022/07/28 04:16:47;;;;;;;6.85;5.80;;;32.20;93.40;;;;;;1850110;76;21171;-80
2022/07/28 04:19:21;;;;;;;6.80;5.83;;;32.20;92.30;;;;;;1873845;76;21069;-79
2022/07/28 04:21:53;;;;;;;7.92;7.12;;;32.30;92.20;;;;;;1847959;76;21095;-80
2022/07/28 04:24:23;;;;;;;10.88;6.78;;;32.30;92.60;;;;;;1819885;77;21143;-79
2022/07/28 04:26:54;;;;;;;10.80;7.17;;;32.40;92.50;;;;;;1811847;77;21203;-79
2022/07/28 04:29:25;;;;;;;8.65;6.33;;;32.50;92.60;;;;;;1826213;77;21626;-79
2022/07/28 04:31:57;;;;;;;7.35;5.53;;;32.60;92.50;;;;;;1829230;77;21198;-79
2022/07/28 04:34:37;;;;;;;7.58;5.60;;;32.70;91.20;;;;;;1832208;77;21614;-79
2022/07/28 04:37:01;;;;;;;8.43;5.85;;;32.80;91.60;;;;;;1849381;76;21134;-81
2022/07/28 04:39:32;;;;;;;6.78;5.10;;;32.70;91.60;;;;;;1811703;77;21166;-79
2022/07/28 04:42:03;;;;;;;6.83;5.58;;;32.70;91.00;;;;;;1847173;76;21221;-79
2022/07/28 04:44:39;;;;;;;6.87;5.85;;;32.70;91.20;;;;;;1848929;76;21146;-80
2022/07/28 04:47:08;;;;;;;6.97;6.28;;;32.90;91.90;;;;;;1850080;76;21120;-79
2022/07/28 04:49:41;;;;;;;6.92;5.97;;;33.00;91.80;;;;;;1794945;77;21636;-80
2022/07/28 04:52:14;;;;;;;7.95;6.55;;;33.10;90.80;;;;;;1829468;77;21143;-80
2022/07/28 04:54:48;;;;;;;6.83;6.20;;;33.30;90.70;;;;;;1853431;76;21120;-80
2022/07/28 04:57:27;;;;;;;7.05;6.40;;;33.40;91.00;;;;;;1840498;77;21092;-79
2022/07/28 04:59:53;;;;;;;6.90;6.17;;;33.40;90.90;;;;;;1846540;76;21111;-79
2022/07/28 05:02:25;;;;;;;7.47;6.78;;;33.30;91.10;;;;;;1843575;74;21053;-81
2022/07/28 05:04:56;;;;;;;7.45;6.58;;;33.10;91.20;;;;;;1844052;76;21603;-81
2022/07/28 05:07:27;;;;;;;7.95;6.85;;;33.00;91.10;;;;;;1851580;76;21148;-80
2022/07/28 05:10:00;;;;;;;9.05;6.47;;;32.90;91.40;;;;;;1826662;77;21279;-78
2022/07/28 05:12:34;;;;;;;7.45;6.30;;;32.80;91.70;;;;;;1842947;75;21143;-80
2022/07/28 05:15:06;;;;;;;6.40;5.75;;;32.70;91.70;;;;;;1790969;78;21115;-82
2022/07/28 05:17:40;;;;;;;8.33;5.72;;;32.70;91.20;;;;;;1804808;79;21096;-80
2022/07/28 05:20:13;;;;;;;11.85;8.93;;;32.70;91.10;;;;;;1860588;76;21053;-81
2022/07/28 05:22:45;;;;;;;8.88;5.97;;;32.70;91.40;;;;;;1798971;77;21092;-80
2022/07/28 05:25:17;;;;;;;12.65;6.60;;;32.80;91.80;;;;;;1825321;76;21253;-81
2022/07/28 05:27:53;;;;;;;7.28;6.25;;;32.90;91.20;;;;;;1845630;76;21163;-80
2022/07/28 05:30:25;;;;;;;8.45;6.15;;;33.00;90.50;;;;;;1802524;78;21551;-81
2022/07/28 05:33:00;;;;;;;6.67;5.60;;;32.90;90.40;;;;;;1850480;76;21181;-79
2022/07/28 05:35:29;;;;;;;6.42;5.42;;;32.90;90.00;;;;;;1860684;75;21072;-80
2022/07/28 05:38:01;;;;;;;7.00;5.42;;;32.90;89.30;;;;;;1827653;76;21162;-79
2022/07/28 05:40:33;;;;;;;10.50;6.10;;;32.90;89.10;;;;;;1866032;76;21192;-79
2022/07/28 05:43:04;;;;;;;7.42;6.28;;;32.90;89.30;;;;;;1861252;76;21091;-79
2022/07/28 05:45:39;;;;;;;7.65;5.90;;;33.00;90.00;;;;;;1848789;76;21153;-80
2022/07/28 05:48:13;;;;;;;6.60;5.95;;;33.00;88.50;;;;;;1848168;76;21180;-79
2022/07/28 05:50:40;;;;;;;6.80;5.55;;;33.00;89.40;;;;;;1860001;76;21147;-80
2022/07/28 05:53:14;;;;;;;7.95;6.12;;;33.00;88.90;;;;;;1873206;76;21133;-80
2022/07/28 05:55:45;;;;;;;6.47;5.58;;;33.00;89.40;;;;;;1822660;77;21172;-79
2022/07/28 05:58:20;;;;;;;6.97;6.28;;;33.00;90.10;;;;;;1822757;77;21231;-80
2022/07/28 06:00:56;;;;;;;8.53;6.47;;;33.20;90.50;;;;;;1809238;78;21168;-80
2022/07/28 06:03:29;;;;;;;10.55;6.75;;;33.30;90.10;;;;;;1858164;76;21124;-78
2022/07/28 06:06:01;;;;;;;7.20;6.28;;;33.50;90.30;;;;;;1854499;76;21697;-80
2022/07/28 06:08:35;;;;;;;6.45;5.75;;;33.60;89.80;;;;;;1847938;76;21161;-80
2022/07/28 06:11:10;;;;;;;7.33;6.20;;;33.80;88.50;;;;;;1818434;78;21665;-80
2022/07/28 06:13:39;;;;;;;8.00;6.20;;;33.90;86.20;;;;;;1853984;74;21162;-80
2022/07/28 06:16:26;;;;;;;7.60;6.35;;;34.10;85.90;;;;;;1855221;76;21155;-81
2022/07/28 06:18:44;;;;;;;7.75;5.97;;;34.20;86.10;;;;;;1824908;77;21579;-80
2022/07/28 06:21:18;;;;;;;7.05;6.03;;;34.20;84.60;;;;;;1826763;76;21179;-79
2022/07/28 06:23:52;;;;;;;6.85;5.85;;;34.10;85.10;;;;;;1843877;76;21142;-80
2022/07/28 06:26:23;;;;;;;6.15;5.55;;;34.10;86.50;;;;;;1852496;76;21661;-79
2022/07/28 06:29:00;;;;;;;7.75;5.67;;;34.10;86.00;;;;;;1842896;76;21824;-79
2022/07/28 06:31:32;;;;;;;7.78;5.60;;;34.10;84.60;;;;;;1834357;77;21182;-81
2022/07/28 06:34:07;;;;;;;6.62;4.97;;;34.10;83.50;;;;;;1813308;77;21147;-80
2022/07/28 06:36:40;;;;;;;6.17;4.97;;;34.20;84.80;;;;;;1840830;77;21615;-79
2022/07/28 06:39:11;;;;;;;8.58;6.35;;;34.10;81.20;;;;;;1819023;77;21112;-79
2022/07/28 06:41:43;;;;;;;7.80;4.70;;;34.10;83.20;;;;;;1817219;77;21668;-80
2022/07/28 06:44:14;;;;;;;5.35;4.72;;;34.00;82.00;;;;;;1822553;77;21672;-79
2022/07/28 06:46:48;;;;;;;6.97;5.05;;;34.00;82.10;;;;;;1817589;77;21211;-80
2022/07/28 06:49:19;;;;;;;6.90;5.70;;;34.00;83.00;;;;;;1817703;77;21113;-79
2022/07/28 06:51:51;;;;;;;8.00;5.62;;;34.00;84.80;;;;;;1819623;77;21523;-79
2022/07/28 06:54:26;;;;;;;6.17;5.53;;;34.10;86.00;;;;;;1814487;77;21663;-80
2022/07/28 06:56:58;;;;;;;5.92;5.33;;;34.10;84.60;;;;;;1813518;77;21665;-78
2022/07/28 06:59:30;;;;;;;6.78;5.15;;;34.10;84.30;;;;;;1745153;81;21151;-78
2022/07/28 07:02:03;;;;;;;7.60;5.30;;;34.00;84.20;;;;;;1815409;77;21606;-80
2022/07/28 07:04:37;;;;;;;7.45;4.95;;;33.80;83.70;;;;;;1816234;77;21162;-80
2022/07/28 07:07:10;;;;;;;5.60;5.10;;;33.80;83.70;;;;;;1822041;77;21147;-79
2022/07/28 07:09:45;;;;;;;6.25;5.65;;;33.80;84.10;;;;;;1800896;77;21163;-79
2022/07/28 07:12:16;;;;;;;7.03;5.47;;;33.90;83.60;;;;;;1811948;77;21158;-81
2022/07/28 07:14:47;;;;;;;6.95;5.30;;;33.90;84.40;;;;;;1824451;77;21130;-79
2022/07/28 07:17:18;;;;;;;6.53;5.25;;;33.90;85.20;;;;;;1812778;77;21240;-79
2022/07/28 07:19:48;;;;;;;5.85;4.60;;;33.80;86.10;;;;;;1819121;77;21126;-80
2022/07/28 07:22:19;;;;;;;10.38;4.87;;;33.80;84.30;;;;;;1809301;77;21188;-79
2022/07/28 07:24:50;;;;;;;6.45;5.40;;;33.70;84.10;;;;;;1806542;77;21552;-79
2022/07/28 07:27:59;;;;;;;5.90;5.30;;;33.60;84.10;;;;;;1833805;77;21197;-78
2022/07/28 07:30:37;;;;;;;6.77;5.47;;;33.50;84.10;;;;;;1780934;78;21127;-80
2022/07/28 07:33:08;;;;;;;6.20;5.12;;;33.40;84.90;;;;;;1848123;76;21255;-80
2022/07/28 07:35:39;;;;;;;6.90;5.33;;;33.30;85.70;;;;;;1848331;76;21223;-82
2022/07/28 07:38:10;;;;;;;5.40;4.90;;;33.30;85.80;;;;;;1834503;76;21083;-79
2022/07/28 07:40:41;;;;;;;5.40;4.90;;;33.30;85.10;;;;;;1791160;79;21248;-81
2022/07/28 07:43:12;;;;;;;7.40;4.55;;;33.30;84.60;;;;;;1843072;76;21140;-79
2022/07/28 07:45:43;;;;;;;8.40;4.80;;;33.30;85.10;;;;;;1861832;75;21138;-82
2022/07/28 07:48:14;;;;;;;5.65;4.45;;;33.20;84.20;;;;;;1850585;77;21110;-79
2022/07/28 07:50:46;;;;;;;5.78;4.47;;;33.20;85.00;;;;;;1846802;77;21110;-81
2022/07/28 07:53:18;;;;;;;6.15;4.95;;;33.20;83.60;;;;;;1840196;77;21121;-80
2022/07/28 07:55:49;;;;;;;7.00;4.45;;;33.20;83.00;;;;;;1849004;77;21280;-78
2022/07/28 07:58:20;;;;;;;5.20;4.70;;;33.30;84.30;;;;;;1849903;77;21145;-79
2022/07/28 08:00:52;;;;;;;6.17;4.62;;;33.30;83.00;;;;;;1842310;77;21569;-81
2022/07/28 08:03:23;;;;;;;6.17;5.12;;;33.40;83.00;;;;;;1822660;76;21133;-80
2022/07/28 08:05:55;;;;;;;7.55;4.95;;;33.50;82.00;;;;;;1831719;77;21202;-80
2022/07/28 08:08:26;;;;;;;6.80;4.92;;;33.50;82.70;;;;;;1817719;77;21083;-79
2022/07/28 08:10:58;;;;;;;6.25;4.67;;;33.70;81.90;;;;;;1820530;77;21176;-80
2022/07/28 08:13:30;;;;;;;6.33;5.10;;;33.70;82.70;;;;;;1829390;77;21145;-80
2022/07/28 08:16:02;;;;;;;5.28;4.78;;;33.70;82.70;;;;;;1840315;77;21180;-79
2022/07/28 08:18:37;;;;;;;5.20;4.47;;;33.70;81.90;;;;;;1822448;78;22121;-80
2022/07/28 08:21:08;;;;;;;9.13;4.30;;;33.70;82.50;;;;;;1841497;77;21118;-78
2022/07/28 08:23:39;;;;;;;5.58;4.92;;;33.70;81.90;;;;;;1827561;78;21138;-79
2022/07/28 08:26:09;;;;;;;7.35;5.35;;;33.80;80.50;;;;;;1840541;76;21122;-79
2022/07/28 08:28:40;;;;;;;5.53;4.40;;;33.80;79.40;;;;;;1847554;77;21207;-78
2022/07/28 08:31:11;;;;;;;7.25;4.70;;;33.90;79.70;;;;;;1870333;75;21165;-81
2022/07/28 08:33:44;;;;;;;5.50;4.22;;;33.90;78.60;;;;;;1893511;75;21072;-78
2022/07/28 08:36:16;;;;;;;6.08;4.33;;;33.90;79.30;;;;;;1889963;74;21061;-79
2022/07/28 08:38:47;;;;;;;5.17;4.30;;;34.00;79.30;;;;;;1884787;75;21119;-78
2022/07/28 08:41:21;;;;;;;5.20;4.65;;;34.00;80.00;;;;;;1882236;75;21563;-79
2022/07/28 08:43:55;;;;;;;8.80;6.58;;;33.90;78.80;;;;;;1882938;75;21162;-81
2022/07/28 08:46:26;;;;;;;5.33;4.70;;;34.00;79.70;;;;;;1882120;75;21143;-79
2022/07/28 08:48:57;;;;;;;7.08;5.20;;;34.00;79.00;;;;;;1884278;75;21191;-80
2022/07/28 08:51:29;;;;;;;6.15;4.67;;;34.00;80.60;;;;;;1879433;74;21135;-81
2022/07/28 08:54:01;;;;;;;7.28;4.78;;;34.00;79.80;;;;;;1881709;75;21088;-80
2022/07/28 08:56:33;;;;;;;6.70;4.60;;;34.00;80.70;;;;;;1883475;75;21229;-79
2022/07/28 08:59:05;;;;;;;7.45;4.70;;;34.00;79.60;;;;;;1882835;75;21233;-79
2022/07/28 09:01:37;;;;;;;5.00;4.08;;;34.00;81.00;;;;;;1886904;75;21609;-80
2022/07/28 09:04:09;;;;;;;5.22;4.60;;;34.00;78.90;;;;;;1888490;74;21049;-81
2022/07/28 09:06:42;;;;;;;6.25;4.92;;;34.00;78.90;;;;;;1883507;75;21197;-81
2022/07/28 09:09:13;;;;;;;7.30;4.87;;;34.00;80.50;;;;;;1881464;75;21206;-81
2022/07/28 09:11:44;;;;;;;6.53;4.40;;;34.00;79.30;;;;;;1874287;75;21069;-80
2022/07/28 09:14:15;;;;;;;5.45;4.55;;;33.90;79.90;;;;;;1886556;75;21544;-80
2022/07/28 09:16:46;;;;;;;5.17;4.35;;;33.90;80.80;;;;;;1878140;75;21734;-79
2022/07/28 09:19:17;;;;;;;5.35;3.87;;;33.80;79.10;;;;;;1882737;75;21131;-80
2022/07/28 09:21:48;;;;;;;5.85;4.35;;;33.70;79.50;;;;;;1870631;75;21131;-80
2022/07/28 09:24:21;;;;;;;5.10;4.20;;;33.60;78.50;;;;;;1891289;75;21073;-80
2022/07/28 09:26:55;;;;;;;5.85;4.50;;;33.60;78.60;;;;;;1870516;75;21096;-81
2022/07/28 09:29:26;;;;;;;5.15;4.20;;;33.50;78.90;;;;;;1882709;74;21604;-81
2022/07/28 09:31:58;;;;;;;4.72;4.22;;;33.50;80.00;;;;;;1893720;75;21084;-81
2022/07/28 09:34:32;;;;;;;5.28;4.50;;;33.40;79.00;;;;;;1891295;75;21213;-81
2022/07/28 09:37:03;;;;;;;5.42;4.87;;;33.30;79.30;;;;;;1872836;75;21170;-81
2022/07/28 09:39:36;;;;;;;4.65;4.03;;;33.40;79.70;;;;;;1879733;75;21139;-80
2022/07/28 09:42:07;;;;;;;5.62;4.08;;;33.30;79.90;;;;;;1875840;75;21104;-81
2022/07/28 09:44:38;;;;;;;5.83;3.90;;;33.30;79.90;;;;;;1859712;76;21114;-80
2022/07/28 09:47:20;;;;;;;6.53;4.50;;;33.30;79.00;;;;;;1870160;76;21215;-80
2022/07/28 09:49:50;;;;;;;6.53;4.53;;;33.30;79.70;;;;;;1881512;75;21128;-80
2022/07/28 09:52:24;;;;;;;6.28;4.70;;;33.30;80.70;;;;;;1881752;76;21100;-79
2022/07/28 09:54:57;;;;;;;5.87;4.80;;;33.20;80.90;;;;;;1876276;75;21146;-80
2022/07/28 09:57:30;;;;;;;6.45;4.90;;;33.20;82.10;;;;;;1855391;75;21100;-80
2022/07/28 10:00:05;;;;;;;8.55;5.00;;;33.20;83.20;;;;;;1856857;75;21115;-79
2022/07/28 10:02:38;;;;;;;5.45;4.83;;;33.20;82.60;;;;;;1874018;75;21497;-82
2022/07/28 10:05:10;;;;;;;6.92;4.72;;;33.20;82.70;;;;;;1873135;75;21152;-82
2022/07/28 10:07:43;;;;;;;6.45;5.10;;;33.20;83.50;;;;;;1846716;76;21087;-82
2022/07/28 10:10:16;;;;;;;6.05;4.72;;;33.20;82.90;;;;;;1821113;77;21230;-82
2022/07/28 10:12:47;;;;;;;6.05;4.55;;;33.20;83.80;;;;;;1818334;77;21120;-82
2022/07/28 10:17:53;;;;;;;6.85;4.83;;;33.10;83.20;;;;;;1787134;78;21225;-81
2022/07/28 10:20:24;;;;;;;5.62;5.03;;;33.10;83.70;;;;;;1805457;77;21159;-80
2022/07/28 10:22:58;;;;;;;6.25;5.20;;;33.10;83.80;;;;;;1869757;75;21124;-82
2022/07/28 10:25:31;;;;;;;6.58;5.12;;;33.10;83.80;;;;;;1870828;75;21104;-81
2022/07/28 10:28:04;;;;;;;6.55;4.90;;;33.00;83.60;;;;;;1869774;75;21573;-81
2022/07/28 10:30:37;;;;;;;9.20;4.75;;;33.00;83.30;;;;;;1859829;76;21213;-81
2022/07/28 10:33:10;;;;;;;8.45;5.33;;;33.00;83.60;;;;;;1841409;76;21536;-81
2022/07/28 10:35:42;;;;;;;5.67;4.62;;;33.00;84.10;;;;;;1866252;76;21135;-80
2022/07/28 10:38:20;;;;;;;8.48;4.87;;;33.00;84.10;;;;;;1870688;76;21125;-81
2022/07/28 10:40:52;;;;;;;7.35;5.08;;;33.00;84.70;;;;;;1863015;76;21186;-81
2022/07/28 10:43:26;;;;;;;6.17;5.17;;;33.00;85.00;;;;;;1870369;76;21551;-80
2022/07/28 10:45:59;;;;;;;8.30;5.00;;;32.90;84.30;;;;;;1875019;76;21201;-83
2022/07/28 10:48:31;;;;;;;7.62;4.97;;;32.90;84.60;;;;;;1875327;75;21532;-82
2022/07/28 10:51:02;;;;;;;8.20;5.62;;;32.90;84.80;;;;;;1855245;76;21678;-80
2022/07/28 10:53:35;;;;;;;7.08;5.40;;;32.90;84.70;;;;;;1870269;75;21203;-82
2022/07/28 10:56:10;;;;;;;6.28;5.08;;;32.90;84.10;;;;;;1862362;76;22231;-81
2022/07/28 10:58:44;;;;;;;12.25;6.37;;;32.90;84.60;;;;;;1850961;75;21205;-80
2022/07/28 11:01:24;;;;;;;7.15;5.70;;;32.90;84.40;;;;;;1868501;76;21202;-81
2022/07/28 11:03:53;;;;;;;6.00;5.28;;;32.90;84.40;;;;;;1864771;76;21076;-80
2022/07/28 11:06:34;;;;;;;6.60;5.53;;;32.90;84.40;;;;;;1881451;76;21956;-82
2022/07/28 11:09:06;;;;;;;7.65;4.95;;;32.90;84.50;;;;;;1872009;75;21218;-80
2022/07/28 11:11:39;;;;;;;6.08;4.85;;;32.90;84.90;;;;;;1876802;76;21124;-80
2022/07/28 11:14:15;;;;;;;7.53;4.95;;;32.80;84.60;;;;;;1876960;75;21457;-80
2022/07/28 11:16:50;;;;;;;6.50;5.50;;;32.90;84.50;;;;;;1867389;75;21130;-80
2022/07/28 11:19:24;;;;;;;6.60;5.70;;;32.80;84.40;;;;;;1874067;75;21174;-82
2022/07/28 11:22:02;;;;;;;7.75;6.12;;;32.80;84.90;;;;;;1876885;74;21128;-81
2022/07/28 11:24:37;;;;;;;9.53;6.37;;;32.80;85.40;;;;;;1873476;76;21076;-80
2022/07/28 11:27:09;;;;;;;8.43;6.42;;;32.80;85.40;;;;;;1878495;75;21668;-80
2022/07/28 11:29:42;;;;;;;7.95;6.92;;;32.80;85.60;;;;;;1875404;75;21579;-81
2022/07/28 11:32:13;;;;;;;10.58;7.78;;;32.80;86.70;;;;;;1880628;76;21213;-81
2022/07/28 11:34:47;;;;;;;13.65;10.43;;;32.70;85.80;;;;;;1876435;75;21138;-81
2022/07/28 11:37:20;;;;;;;11.38;7.50;;;32.70;86.10;;;;;;1872578;76;21575;-80
2022/07/28 11:39:50;;;;;;;9.93;7.22;;;32.70;86.10;;;;;;1873425;75;21079;-81
2022/07/28 11:42:29;;;;;;;10.35;7.22;;;32.70;86.20;;;;;;1876322;76;21622;-81
2022/07/28 11:45:09;;;;;;;12.73;7.65;;;32.70;86.40;;;;;;1880510;74;21107;-80
2022/07/28 11:47:37;;;;;;;9.23;7.15;;;32.60;86.80;;;;;;1879072;75;21111;-80
2022/07/28 11:50:11;;;;;;;8.93;7.17;;;32.60;86.80;;;;;;1875746;75;21517;-82
2022/07/28 11:52:44;;;;;;;10.05;7.60;;;32.50;87.00;;;;;;1879024;76;21169;-80
2022/07/28 11:55:17;;;;;;;16.73;8.85;;;32.50;87.30;;;;;;1877483;75;21164;-83
2022/07/28 11:57:49;;;;;;;11.80;8.68;;;32.50;87.50;;;;;;1874058;75;21143;-83
2022/07/28 12:00:25;;;;;;;13.38;10.00;;;32.40;87.40;;;;;;1876800;76;21223;-81
2022/07/28 12:02:56;;;;;;;11.30;8.83;;;32.50;88.60;;;;;;1883924;75;21174;-82
2022/07/28 12:05:27;;;;;;;12.23;9.60;;;32.40;87.80;;;;;;1881721;76;21144;-81
2022/07/28 12:07:59;;;;;;;12.13;8.48;;;32.40;88.00;;;;;;1869480;74;21200;-81
2022/07/28 12:10:33;;;;;;;13.85;8.95;;;32.40;87.80;;;;;;1869184;75;21223;-81
2022/07/28 12:13:07;;;;;;;12.70;8.93;;;32.40;87.90;;;;;;1869438;75;21197;-83
2022/07/28 12:15:38;;;;;;;12.40;8.53;;;32.40;87.80;;;;;;1880908;76;21193;-81
2022/07/28 12:18:11;;;;;;;14.87;8.60;;;32.40;87.90;;;;;;1879862;76;21112;-80
2022/07/28 12:20:46;;;;;;;12.93;7.83;;;32.30;88.00;;;;;;1879706;75;21143;-81
2022/07/28 12:23:18;;;;;;;10.98;7.65;;;32.30;87.50;;;;;;1836375;78;21082;-82
2022/07/28 12:25:50;;;;;;;9.38;7.05;;;32.30;87.60;;;;;;1830382;77;21222;-80
2022/07/28 12:28:23;;;;;;;9.45;6.70;;;32.30;87.70;;;;;;1825240;78;21146;-81
2022/07/28 12:30:56;;;;;;;10.88;7.35;;;32.30;88.10;;;;;;1830551;77;21175;-81
2022/07/28 12:33:27;;;;;;;11.22;7.55;;;32.30;88.30;;;;;;1831256;77;21209;-80
2022/07/28 12:35:59;;;;;;;9.73;7.45;;;32.20;88.50;;;;;;1832799;77;21177;-80
2022/07/28 12:38:40;;;;;;;10.40;7.47;;;32.20;88.60;;;;;;1844241;77;21129;-81
2022/07/28 12:41:18;;;;;;;12.70;7.58;;;32.20;88.50;;;;;;1843914;77;21165;-81
2022/07/28 12:43:49;;;;;;;14.25;8.08;;;32.20;88.60;;;;;;1839387;77;21640;-81
2022/07/28 12:46:22;;;;;;;11.53;8.38;;;32.10;88.70;;;;;;1834004;77;21604;-79
2022/07/28 12:48:55;;;;;;;15.03;8.75;;;32.10;89.10;;;;;;1829393;77;21216;-79
2022/07/28 12:51:32;;;;;;;11.67;8.37;;;32.10;89.40;;;;;;1833028;77;21142;-80
2022/07/28 12:54:05;;;;;;;15.50;8.33;;;32.10;89.70;;;;;;1832478;77;21142;-79
2022/07/28 12:56:42;;;;;;;12.98;8.13;;;32.10;90.00;;;;;;1849017;77;21276;-80
2022/07/28 12:59:12;;;;;;;13.40;8.78;;;32.10;90.10;;;;;;1837845;77;21097;-81
2022/07/28 13:01:47;;;;;;;11.45;8.63;;;32.10;90.20;;;;;;1833538;77;21129;-80
2022/07/28 13:04:21;;;;;;;12.88;9.18;;;32.00;90.30;;;;;;1837223;76;21199;-81
2022/07/28 13:06:55;;;;;;;11.70;8.38;;;32.00;90.40;;;;;;1836283;76;21108;-81
2022/07/28 13:09:27;;;;;;;10.20;8.08;;;31.90;90.50;;;;;;1819410;77;21080;-81
2022/07/28 13:12:00;;;;;;;11.90;7.95;;;31.90;90.80;;;;;;1837358;77;21247;-83
2022/07/28 13:14:33;;;;;;;10.35;7.53;;;31.90;90.80;;;;;;1845655;77;21188;-78
2022/07/28 13:17:05;;;;;;;10.23;7.70;;;31.90;91.00;;;;;;1833711;77;21573;-79